createdAt,value
2019-02-27T00:00:45.940Z,1015.55
2019-02-27T00:01:49.695Z,1015.57
2019-02-27T00:02:45.922Z,1015.54
2019-02-27T00:03:45.912Z,1015.56
2019-02-27T00:04:45.905Z,1015.54
2019-02-27T00:05:45.893Z,1015.53
2019-02-27T00:06:47.848Z,1015.53
2019-02-27T00:07:45.903Z,1015.55
2019-02-27T00:08:45.871Z,1015.51
2019-02-27T00:09:45.857Z,1015.49
2019-02-27T00:10:45.845Z,1015.46
2019-02-27T00:11:46.700Z,1015.45
2019-02-27T00:12:45.828Z,1015.43
2019-02-27T00:13:45.817Z,1015.41
2019-02-27T00:14:45.808Z,1015.43
2019-02-27T00:15:45.799Z,1015.39
2019-02-27T00:16:45.789Z,1015.41
2019-02-27T00:17:45.782Z,1015.38
2019-02-27T00:18:45.773Z,1015.37
2019-02-27T00:19:45.761Z,1015.41
2019-02-27T00:20:45.783Z,1015.38
2019-02-27T00:21:45.741Z,1015.41
2019-02-27T00:22:47.920Z,1015.41
2019-02-27T00:23:45.721Z,1015.43
2019-02-27T00:24:45.712Z,1015.45
2019-02-27T00:25:45.706Z,1015.42
2019-02-27T00:26:45.732Z,1015.42
2019-02-27T00:27:48.692Z,1015.40
2019-02-27T00:28:45.675Z,1015.41
2019-02-27T00:29:45.663Z,1015.37
2019-02-27T00:30:45.653Z,1015.40
2019-02-27T00:31:46.201Z,1015.41
2019-02-27T00:32:45.635Z,1015.40
2019-02-27T00:33:45.654Z,1015.44
2019-02-27T00:34:45.650Z,1015.37
2019-02-27T00:35:45.608Z,1015.38
2019-02-27T00:36:45.708Z,1015.40
2019-02-27T00:37:45.589Z,1015.36
2019-02-27T00:38:45.576Z,1015.38
2019-02-27T00:39:45.564Z,1015.39
2019-02-27T00:40:45.556Z,1015.36
2019-02-27T00:41:46.059Z,1015.35
2019-02-27T00:42:45.546Z,1015.38
2019-02-27T00:43:45.526Z,1015.32
2019-02-27T00:44:45.517Z,1015.32
2019-02-27T00:45:45.507Z,1015.34
2019-02-27T00:46:46.465Z,1015.34
2019-02-27T00:47:45.484Z,1015.36
2019-02-27T00:48:45.477Z,1015.34
2019-02-27T00:49:45.470Z,1015.35
2019-02-27T00:50:45.462Z,1015.35
2019-02-27T00:51:45.522Z,1015.35
2019-02-27T00:52:45.442Z,1015.32
2019-02-27T00:53:45.489Z,1015.31
2019-02-27T00:54:45.418Z,1015.29
2019-02-27T00:55:45.424Z,1015.28
2019-02-27T00:56:45.725Z,1015.29
2019-02-27T00:57:45.390Z,1015.29
2019-02-27T00:58:45.377Z,1015.32
2019-02-27T00:59:45.369Z,1015.29
2019-02-27T01:00:45.358Z,1015.32
2019-02-27T01:01:47.498Z,1015.30
2019-02-27T01:02:45.340Z,1015.34
2019-02-27T01:03:45.332Z,1015.34
2019-02-27T01:04:45.317Z,1015.32
2019-02-27T01:05:45.323Z,1015.32
2019-02-27T01:06:47.454Z,1015.32
2019-02-27T01:07:45.290Z,1015.31
2019-02-27T01:08:45.280Z,1015.31
2019-02-27T01:09:45.271Z,1015.29
2019-02-27T01:10:45.870Z,1015.28
2019-02-27T01:11:45.256Z,1015.29
2019-02-27T01:12:45.303Z,1015.27
2019-02-27T01:13:45.230Z,1015.22
2019-02-27T01:14:45.219Z,1015.24
2019-02-27T01:15:45.209Z,1015.25
2019-02-27T01:16:47.694Z,1015.24
2019-02-27T01:17:45.202Z,1015.24
2019-02-27T01:18:45.177Z,1015.22
2019-02-27T01:19:45.169Z,1015.21
2019-02-27T01:20:46.441Z,1015.15
2019-02-27T01:21:45.150Z,1015.16
2019-02-27T01:22:45.139Z,1015.14
2019-02-27T01:23:45.136Z,1015.13
2019-02-27T01:24:45.116Z,1015.06
2019-02-27T01:25:45.109Z,1015.09
2019-02-27T01:26:45.099Z,1015.05
2019-02-27T01:27:45.092Z,1015.07
2019-02-27T01:28:45.623Z,1015.02
2019-02-27T01:29:45.067Z,1015.01
2019-02-27T01:30:45.057Z,1014.99
2019-02-27T01:31:45.052Z,1015.00
2019-02-27T01:32:45.039Z,1014.98
2019-02-27T01:33:45.034Z,1014.95
2019-02-27T01:34:45.093Z,1014.92
2019-02-27T01:35:45.009Z,1014.91
2019-02-27T01:36:45.013Z,1014.91
2019-02-27T01:37:44.993Z,1014.90
2019-02-27T01:38:44.977Z,1014.92
2019-02-27T01:39:44.972Z,1014.93
2019-02-27T01:40:44.956Z,1014.92
2019-02-27T01:41:44.947Z,1014.93
2019-02-27T01:42:44.964Z,1014.92
2019-02-27T01:43:44.925Z,1014.89
2019-02-27T01:44:46.566Z,1014.90
2019-02-27T01:45:44.910Z,1014.88
2019-02-27T01:46:44.898Z,1014.81
2019-02-27T01:47:44.887Z,1014.85
2019-02-27T01:48:44.877Z,1014.80
2019-02-27T01:49:48.922Z,1014.80
2019-02-27T01:50:44.857Z,1014.79
2019-02-27T01:51:44.847Z,1014.74
2019-02-27T01:52:44.839Z,1014.77
2019-02-27T01:53:44.827Z,1014.72
2019-02-27T01:54:46.097Z,1014.74
2019-02-27T01:55:44.806Z,1014.74
2019-02-27T01:56:44.794Z,1014.72
2019-02-27T01:57:44.788Z,1014.69
2019-02-27T01:58:44.783Z,1014.69
2019-02-27T01:59:44.763Z,1014.68
2019-02-27T02:00:44.761Z,1014.72
2019-02-27T02:01:44.742Z,1014.73
2019-02-27T02:02:44.736Z,1014.73
2019-02-27T02:03:47.163Z,1014.70
2019-02-27T02:04:44.711Z,1014.72
2019-02-27T02:05:44.701Z,1014.68
2019-02-27T02:06:44.691Z,1014.65
2019-02-27T02:07:44.681Z,1014.63
2019-02-27T02:08:47.983Z,1014.57
2019-02-27T02:09:44.659Z,1014.56
2019-02-27T02:10:44.655Z,1014.52
2019-02-27T02:11:44.637Z,1014.50
2019-02-27T02:12:44.627Z,1014.47
2019-02-27T02:13:48.022Z,1014.47
2019-02-27T02:14:44.611Z,1014.47
2019-02-27T02:15:44.596Z,1014.44
2019-02-27T02:16:44.586Z,1014.47
2019-02-27T02:17:44.582Z,1014.48
2019-02-27T02:18:45.732Z,1014.44
2019-02-27T02:19:44.558Z,1014.51
2019-02-27T02:20:44.545Z,1014.44
2019-02-27T02:21:44.536Z,1014.47
2019-02-27T02:22:44.525Z,1014.41
2019-02-27T02:23:44.947Z,1014.44
2019-02-27T02:24:44.507Z,1014.39
2019-02-27T02:25:44.494Z,1014.41
2019-02-27T02:26:44.483Z,1014.39
2019-02-27T02:27:44.473Z,1014.36
2019-02-27T02:28:48.072Z,1014.37
2019-02-27T02:29:44.452Z,1014.35
2019-02-27T02:30:44.453Z,1014.38
2019-02-27T02:31:44.438Z,1014.35
2019-02-27T02:32:44.423Z,1014.33
2019-02-27T02:33:44.416Z,1014.32
2019-02-27T02:34:44.402Z,1014.32
2019-02-27T02:35:49.748Z,1014.29
2019-02-27T02:36:44.381Z,1014.27
2019-02-27T02:37:44.375Z,1014.23
2019-02-27T02:38:44.357Z,1014.26
2019-02-27T02:39:44.349Z,1014.27
2019-02-27T02:40:44.339Z,1014.25
2019-02-27T02:41:47.971Z,1014.25
2019-02-27T02:42:44.320Z,1014.25
2019-02-27T02:43:44.326Z,1014.24
2019-02-27T02:44:44.364Z,1014.26
2019-02-27T02:45:44.285Z,1014.27
2019-02-27T02:46:45.282Z,1014.26
2019-02-27T02:47:44.267Z,1014.23
2019-02-27T02:48:44.253Z,1014.22
2019-02-27T02:49:44.262Z,1014.21
2019-02-27T02:50:44.234Z,1014.19
2019-02-27T02:51:44.227Z,1014.17
2019-02-27T02:52:44.212Z,1014.14
2019-02-27T02:53:44.203Z,1014.19
2019-02-27T02:54:44.190Z,1014.19
2019-02-27T02:55:47.729Z,1014.16
2019-02-27T02:56:44.172Z,1014.17
2019-02-27T02:57:44.162Z,1014.18
2019-02-27T02:58:48.435Z,1014.20
2019-02-27T02:59:44.136Z,1014.19
2019-02-27T03:00:44.127Z,1014.16
2019-02-27T03:01:45.589Z,1014.18
2019-02-27T03:02:44.109Z,1014.14
2019-02-27T03:03:44.112Z,1014.13
2019-02-27T03:04:47.933Z,1014.16
2019-02-27T03:05:44.086Z,1014.09
2019-02-27T03:06:44.067Z,1014.12
2019-02-27T03:07:44.871Z,1014.09
2019-02-27T03:08:44.045Z,1014.11
2019-02-27T03:09:44.032Z,1014.10
2019-02-27T03:10:44.022Z,1014.14
2019-02-27T03:11:44.017Z,1014.11
2019-02-27T03:12:44.005Z,1014.07
2019-02-27T03:13:43.998Z,1014.09
2019-02-27T03:14:43.985Z,1014.08
2019-02-27T03:15:43.976Z,1014.06
2019-02-27T03:16:43.964Z,1014.07
2019-02-27T03:17:43.951Z,1014.06
2019-02-27T03:18:43.937Z,1014.07
2019-02-27T03:19:43.953Z,1014.10
2019-02-27T03:20:43.917Z,1014.07
2019-02-27T03:21:43.909Z,1014.08
2019-02-27T03:22:43.898Z,1014.12
2019-02-27T03:23:43.890Z,1014.11
2019-02-27T03:24:43.886Z,1014.12
2019-02-27T03:25:43.871Z,1014.11
2019-02-27T03:26:43.854Z,1014.13
2019-02-27T03:27:43.842Z,1014.15
2019-02-27T03:28:43.829Z,1014.15
2019-02-27T03:29:43.819Z,1014.14
2019-02-27T03:30:43.814Z,1014.16
2019-02-27T03:31:43.803Z,1014.17
2019-02-27T03:32:43.955Z,1014.20
2019-02-27T03:33:43.781Z,1014.20
2019-02-27T03:34:50.435Z,1014.24
2019-02-27T03:35:43.764Z,1014.21
2019-02-27T03:36:43.748Z,1014.20
2019-02-27T03:37:47.975Z,1014.22
2019-02-27T03:38:43.725Z,1014.23
2019-02-27T03:39:43.714Z,1014.19
2019-02-27T03:40:45.146Z,1014.20
2019-02-27T03:41:43.694Z,1014.22
2019-02-27T03:42:43.684Z,1014.20
2019-02-27T03:43:45.978Z,1014.18
2019-02-27T03:44:43.662Z,1014.17
2019-02-27T03:45:43.655Z,1014.18
2019-02-27T03:46:43.647Z,1014.20
2019-02-27T03:47:43.634Z,1014.19
2019-02-27T03:48:43.620Z,1014.16
2019-02-27T03:49:43.609Z,1014.13
2019-02-27T03:50:49.556Z,1014.16
2019-02-27T03:51:43.598Z,1014.16
2019-02-27T03:52:43.577Z,1014.16
2019-02-27T03:53:46.437Z,1014.14
2019-02-27T03:54:43.566Z,1014.14
2019-02-27T03:55:43.554Z,1014.15
2019-02-27T03:56:44.673Z,1014.15
2019-02-27T03:57:43.527Z,1014.18
2019-02-27T03:58:43.516Z,1014.11
2019-02-27T03:59:43.851Z,1014.18
2019-02-27T04:00:43.507Z,1014.15
2019-02-27T04:01:43.499Z,1014.14
2019-02-27T04:02:43.474Z,1014.16
2019-02-27T04:03:43.462Z,1014.13
2019-02-27T04:04:43.470Z,1014.07
2019-02-27T04:05:46.033Z,1014.09
2019-02-27T04:06:43.430Z,1014.09
2019-02-27T04:07:43.427Z,1014.06
2019-02-27T04:08:44.827Z,1014.04
2019-02-27T04:09:43.399Z,1014.09
2019-02-27T04:10:43.389Z,1014.07
2019-02-27T04:11:43.389Z,1014.05
2019-02-27T04:12:43.366Z,1014.02
2019-02-27T04:13:43.364Z,1014.07
2019-02-27T04:14:43.343Z,1014.01
2019-02-27T04:15:43.335Z,1014.05
2019-02-27T04:16:43.327Z,1014.03
2019-02-27T04:17:43.312Z,1014.01
2019-02-27T04:18:43.304Z,1014.03
2019-02-27T04:19:43.301Z,1014.05
2019-02-27T04:20:43.280Z,1014.04
2019-02-27T04:21:43.272Z,1014.01
2019-02-27T04:22:43.266Z,1013.97
2019-02-27T04:23:47.949Z,1013.99
2019-02-27T04:24:43.239Z,1014.00
2019-02-27T04:25:43.236Z,1013.95
2019-02-27T04:26:43.223Z,1013.97
2019-02-27T04:27:43.206Z,1013.95
2019-02-27T04:28:43.195Z,1013.99
2019-02-27T04:29:43.195Z,1013.99
2019-02-27T04:30:43.175Z,1014.04
2019-02-27T04:31:43.168Z,1014.00
2019-02-27T04:32:47.650Z,1014.01
2019-02-27T04:33:43.148Z,1013.99
2019-02-27T04:34:43.134Z,1013.94
2019-02-27T04:35:43.126Z,1013.97
2019-02-27T04:36:47.014Z,1013.98
2019-02-27T04:37:43.102Z,1013.96
2019-02-27T04:38:43.090Z,1013.96
2019-02-27T04:39:43.077Z,1013.98
2019-02-27T04:40:44.168Z,1013.97
2019-02-27T04:41:43.057Z,1013.98
2019-02-27T04:42:43.045Z,1013.95
2019-02-27T04:43:43.035Z,1013.92
2019-02-27T04:44:43.024Z,1013.94
2019-02-27T04:45:46.435Z,1013.90
2019-02-27T04:46:43.003Z,1013.89
2019-02-27T04:47:42.993Z,1013.86
2019-02-27T04:48:42.982Z,1013.86
2019-02-27T04:49:42.971Z,1013.79
2019-02-27T04:50:44.176Z,1013.80
2019-02-27T04:51:42.949Z,1013.77
2019-02-27T04:52:42.939Z,1013.78
2019-02-27T04:53:42.931Z,1013.82
2019-02-27T04:54:42.920Z,1013.84
2019-02-27T04:55:42.906Z,1013.86
2019-02-27T04:56:42.898Z,1013.84
2019-02-27T04:57:42.884Z,1013.86
2019-02-27T04:58:43.688Z,1013.87
2019-02-27T04:59:42.865Z,1013.87
2019-02-27T05:00:42.858Z,1013.84
2019-02-27T05:01:42.845Z,1013.87
2019-02-27T05:02:42.834Z,1013.91
2019-02-27T05:03:42.825Z,1013.84
2019-02-27T05:04:42.810Z,1013.83
2019-02-27T05:05:42.802Z,1013.88
2019-02-27T05:06:46.849Z,1013.81
2019-02-27T05:07:42.779Z,1013.80
2019-02-27T05:08:42.773Z,1013.85
2019-02-27T05:09:42.760Z,1013.80
2019-02-27T05:10:42.746Z,1013.81
2019-02-27T05:11:47.573Z,1013.78
2019-02-27T05:12:42.729Z,1013.76
2019-02-27T05:13:42.717Z,1013.72
2019-02-27T05:14:42.711Z,1013.72
2019-02-27T05:15:42.692Z,1013.70
2019-02-27T05:16:46.953Z,1013.71
2019-02-27T05:17:42.672Z,1013.71
2019-02-27T05:18:42.665Z,1013.70
2019-02-27T05:19:42.649Z,1013.71
2019-02-27T05:20:45.069Z,1013.72
2019-02-27T05:21:42.636Z,1013.70
2019-02-27T05:22:42.628Z,1013.71
2019-02-27T05:23:42.620Z,1013.73
2019-02-27T05:24:42.596Z,1013.72
2019-02-27T05:25:42.593Z,1013.73
2019-02-27T05:26:42.575Z,1013.71
2019-02-27T05:27:42.571Z,1013.73
2019-02-27T05:28:42.554Z,1013.79
2019-02-27T05:29:42.559Z,1013.79
2019-02-27T05:30:44.771Z,1013.78
2019-02-27T05:31:42.521Z,1013.75
2019-02-27T05:32:42.512Z,1013.74
2019-02-27T05:33:42.506Z,1013.74
2019-02-27T05:34:42.491Z,1013.74
2019-02-27T05:35:42.478Z,1013.76
2019-02-27T05:36:42.469Z,1013.74
2019-02-27T05:37:42.460Z,1013.77
2019-02-27T05:38:43.680Z,1013.74
2019-02-27T05:39:42.439Z,1013.76
2019-02-27T05:40:42.428Z,1013.72
2019-02-27T05:41:42.414Z,1013.74
2019-02-27T05:42:42.404Z,1013.75
2019-02-27T05:43:47.558Z,1013.76
2019-02-27T05:44:42.381Z,1013.78
2019-02-27T05:45:42.371Z,1013.76
2019-02-27T05:46:42.360Z,1013.79
2019-02-27T05:47:45.841Z,1013.75
2019-02-27T05:48:42.348Z,1013.77
2019-02-27T05:49:42.332Z,1013.79
2019-02-27T05:50:44.347Z,1013.75
2019-02-27T05:51:42.308Z,1013.74
2019-02-27T05:52:42.296Z,1013.73
2019-02-27T05:53:42.289Z,1013.72
2019-02-27T05:54:42.276Z,1013.75
2019-02-27T05:55:42.267Z,1013.72
2019-02-27T05:56:42.254Z,1013.71
2019-02-27T05:57:42.243Z,1013.69
2019-02-27T05:58:42.229Z,1013.72
2019-02-27T05:59:42.221Z,1013.71
2019-02-27T06:00:42.214Z,1013.71
2019-02-27T06:01:42.196Z,1013.70
2019-02-27T06:02:45.068Z,1013.68
2019-02-27T06:03:42.177Z,1013.68
2019-02-27T06:04:42.176Z,1013.68
2019-02-27T06:05:49.365Z,1013.64
2019-02-27T06:06:45.037Z,1013.64
2019-02-27T06:07:42.131Z,1013.65
2019-02-27T06:08:42.121Z,1013.62
2019-02-27T06:09:43.745Z,1013.62
2019-02-27T06:10:42.097Z,1013.62
2019-02-27T06:11:42.090Z,1013.59
2019-02-27T06:12:42.088Z,1013.59
2019-02-27T06:13:42.068Z,1013.57
2019-02-27T06:14:42.055Z,1013.60
2019-02-27T06:15:42.045Z,1013.58
2019-02-27T06:16:42.032Z,1013.61
2019-02-27T06:17:43.616Z,1013.60
2019-02-27T06:18:42.028Z,1013.59
2019-02-27T06:19:42.000Z,1013.66
2019-02-27T06:20:42.541Z,1013.61
2019-02-27T06:21:41.983Z,1013.58
2019-02-27T06:22:41.967Z,1013.58
2019-02-27T06:23:41.955Z,1013.60
2019-02-27T06:24:45.252Z,1013.53
2019-02-27T06:25:41.942Z,1013.59
2019-02-27T06:26:41.943Z,1013.59
2019-02-27T06:27:41.914Z,1013.57
2019-02-27T06:28:41.967Z,1013.57
2019-02-27T06:29:41.891Z,1013.61
2019-02-27T06:30:41.880Z,1013.59
2019-02-27T06:31:41.869Z,1013.59
2019-02-27T06:32:41.859Z,1013.61
2019-02-27T06:33:45.070Z,1013.60
2019-02-27T06:34:41.837Z,1013.64
2019-02-27T06:35:41.824Z,1013.62
2019-02-27T06:36:42.858Z,1013.64
2019-02-27T06:37:41.805Z,1013.63
2019-02-27T06:38:41.794Z,1013.56
2019-02-27T06:39:41.779Z,1013.58
2019-02-27T06:40:42.321Z,1013.58
2019-02-27T06:41:41.758Z,1013.56
2019-02-27T06:42:41.749Z,1013.57
2019-02-27T06:43:41.735Z,1013.58
2019-02-27T06:44:41.726Z,1013.60
2019-02-27T06:45:45.492Z,1013.59
2019-02-27T06:46:41.738Z,1013.56
2019-02-27T06:47:41.692Z,1013.58
2019-02-27T06:48:43.603Z,1013.60
2019-02-27T06:49:41.672Z,1013.57
2019-02-27T06:50:41.663Z,1013.58
2019-02-27T06:51:41.650Z,1013.53
2019-02-27T06:52:42.452Z,1013.55
2019-02-27T06:53:41.626Z,1013.51
2019-02-27T06:54:41.619Z,1013.52
2019-02-27T06:55:41.607Z,1013.52
2019-02-27T06:56:41.595Z,1013.50
2019-02-27T06:57:41.934Z,1013.55
2019-02-27T06:58:41.578Z,1013.54
2019-02-27T06:59:41.567Z,1013.57
2019-02-27T07:00:41.556Z,1013.55
2019-02-27T07:01:41.542Z,1013.58
2019-02-27T07:02:41.532Z,1013.58
2019-02-27T07:03:41.517Z,1013.53
2019-02-27T07:04:41.518Z,1013.54
2019-02-27T07:05:41.494Z,1013.54
2019-02-27T07:06:41.485Z,1013.52
2019-02-27T07:07:41.476Z,1013.51
2019-02-27T07:08:41.465Z,1013.48
2019-02-27T07:09:43.217Z,1013.43
2019-02-27T07:10:41.441Z,1013.44
2019-02-27T07:11:44.936Z,1013.44
2019-02-27T07:12:41.507Z,1013.42
2019-02-27T07:13:41.408Z,1013.41
2019-02-27T07:14:41.397Z,1013.45
2019-02-27T07:15:41.394Z,1013.47
2019-02-27T07:16:41.379Z,1013.45
2019-02-27T07:17:41.365Z,1013.44
2019-02-27T07:18:42.376Z,1013.44
2019-02-27T07:19:41.342Z,1013.41
2019-02-27T07:20:41.334Z,1013.38
2019-02-27T07:21:41.324Z,1013.39
2019-02-27T07:22:45.675Z,1013.37
2019-02-27T07:23:41.307Z,1013.38
2019-02-27T07:24:41.288Z,1013.37
2019-02-27T07:25:42.176Z,1013.35
2019-02-27T07:26:41.269Z,1013.31
2019-02-27T07:27:41.264Z,1013.30
2019-02-27T07:28:43.438Z,1013.25
2019-02-27T07:29:42.804Z,1013.29
2019-02-27T07:30:42.652Z,1013.28
2019-02-27T07:31:41.225Z,1013.30
2019-02-27T07:32:41.221Z,1013.28
2019-02-27T07:33:41.223Z,1013.23
2019-02-27T07:34:41.339Z,1013.26
2019-02-27T07:35:41.175Z,1013.21
2019-02-27T07:36:41.161Z,1013.23
2019-02-27T07:37:41.150Z,1013.24
2019-02-27T07:38:41.146Z,1013.19
2019-02-27T07:39:41.128Z,1013.18
2019-02-27T07:40:42.935Z,1013.16
2019-02-27T07:41:41.122Z,1013.19
2019-02-27T07:42:41.100Z,1013.14
2019-02-27T07:43:41.085Z,1013.09
2019-02-27T07:44:42.242Z,1013.06
2019-02-27T07:45:42.717Z,1013.06
2019-02-27T07:46:41.067Z,1013.02
2019-02-27T07:47:41.057Z,1013.01
2019-02-27T07:48:41.034Z,1013.00
2019-02-27T07:49:41.023Z,1012.98
2019-02-27T07:50:41.012Z,1013.00
2019-02-27T07:51:41.068Z,1013.01
2019-02-27T07:52:40.995Z,1013.04
2019-02-27T07:53:40.981Z,1013.07
2019-02-27T07:54:40.970Z,1013.08
2019-02-27T07:55:40.960Z,1013.06
2019-02-27T07:56:40.948Z,1013.05
2019-02-27T07:57:40.937Z,1013.05
2019-02-27T07:58:40.933Z,1013.02
2019-02-27T07:59:40.915Z,1012.99
2019-02-27T08:00:42.780Z,1013.02
2019-02-27T08:01:43.751Z,1013.04
2019-02-27T08:02:40.884Z,1013.02
2019-02-27T08:03:44.640Z,1013.01
2019-02-27T08:04:40.860Z,1013.00
2019-02-27T08:05:40.852Z,1012.99
2019-02-27T08:06:41.532Z,1013.00
2019-02-27T08:07:40.830Z,1012.98
2019-02-27T08:08:40.823Z,1012.97
2019-02-27T08:09:40.807Z,1012.96
2019-02-27T08:10:40.801Z,1013.00
2019-02-27T08:11:40.790Z,1013.02
2019-02-27T08:12:40.774Z,1013.00
2019-02-27T08:13:40.771Z,1012.99
2019-02-27T08:14:40.754Z,1012.95
2019-02-27T08:15:40.744Z,1013.00
2019-02-27T08:16:40.738Z,1012.96
2019-02-27T08:17:40.722Z,1012.95
2019-02-27T08:18:40.713Z,1013.00
2019-02-27T08:19:42.823Z,1012.98
2019-02-27T08:20:40.691Z,1012.97
2019-02-27T08:21:40.681Z,1012.95
2019-02-27T08:22:40.671Z,1012.95
2019-02-27T08:23:40.659Z,1012.99
2019-02-27T08:24:40.651Z,1012.98
2019-02-27T08:25:40.644Z,1012.96
2019-02-27T08:26:40.630Z,1012.92
2019-02-27T08:27:43.050Z,1012.91
2019-02-27T08:28:40.610Z,1012.86
2019-02-27T08:29:40.596Z,1012.89
2019-02-27T08:30:40.590Z,1012.90
2019-02-27T08:31:40.579Z,1012.91
2019-02-27T08:32:40.567Z,1012.87
2019-02-27T08:33:40.571Z,1012.87
2019-02-27T08:34:40.545Z,1012.86
2019-02-27T08:35:40.540Z,1012.89
2019-02-27T08:36:40.530Z,1012.85
2019-02-27T08:37:40.519Z,1012.87
2019-02-27T08:38:40.507Z,1012.81
2019-02-27T08:39:40.503Z,1012.80
2019-02-27T08:40:40.486Z,1012.77
2019-02-27T08:41:40.476Z,1012.82
2019-02-27T08:42:40.703Z,1012.80
2019-02-27T08:43:41.207Z,1012.78
2019-02-27T08:44:42.968Z,1012.79
2019-02-27T08:45:40.435Z,1012.78
2019-02-27T08:46:40.430Z,1012.78
2019-02-27T08:47:40.891Z,1012.75
2019-02-27T08:48:40.441Z,1012.76
2019-02-27T08:49:40.397Z,1012.71
2019-02-27T08:50:40.387Z,1012.72
2019-02-27T08:51:42.116Z,1012.72
2019-02-27T08:52:40.364Z,1012.72
2019-02-27T08:53:40.363Z,1012.74
2019-02-27T08:54:40.579Z,1012.72
2019-02-27T08:55:40.335Z,1012.71
2019-02-27T08:56:40.403Z,1012.71
2019-02-27T08:57:40.316Z,1012.70
2019-02-27T08:58:40.306Z,1012.69
2019-02-27T08:59:40.775Z,1012.69
2019-02-27T09:00:40.294Z,1012.67
2019-02-27T09:01:40.278Z,1012.65
2019-02-27T09:02:40.270Z,1012.65
2019-02-27T09:03:40.259Z,1012.64
2019-02-27T09:04:42.909Z,1012.62
2019-02-27T09:05:40.239Z,1012.66
2019-02-27T09:06:40.231Z,1012.62
2019-02-27T09:07:40.226Z,1012.62
2019-02-27T09:08:43.322Z,1012.54
2019-02-27T09:09:40.204Z,1012.53
2019-02-27T09:10:40.302Z,1012.51
2019-02-27T09:11:40.731Z,1012.52
2019-02-27T09:12:40.338Z,1012.50
2019-02-27T09:13:40.165Z,1012.51
2019-02-27T09:14:40.158Z,1012.49
2019-02-27T09:15:41.721Z,1012.54
2019-02-27T09:16:40.141Z,1012.51
2019-02-27T09:17:40.131Z,1012.52
2019-02-27T09:18:40.117Z,1012.51
2019-02-27T09:19:44.974Z,1012.50
2019-02-27T09:20:40.098Z,1012.46
2019-02-27T09:21:40.094Z,1012.43
2019-02-27T09:22:40.082Z,1012.39
2019-02-27T09:23:40.070Z,1012.38
2019-02-27T09:24:40.070Z,1012.31
2019-02-27T09:25:40.055Z,1012.32
2019-02-27T09:26:40.043Z,1012.28
2019-02-27T09:27:40.040Z,1012.25
2019-02-27T09:28:44.316Z,1012.26
2019-02-27T09:29:40.015Z,1012.23
2019-02-27T09:30:40.006Z,1012.22
2019-02-27T09:31:50.268Z,1012.21
2019-02-27T09:32:40.000Z,1012.16
2019-02-27T09:33:39.980Z,1012.16
2019-02-27T09:34:39.975Z,1012.16
2019-02-27T09:35:40.253Z,1012.17
2019-02-27T09:36:43.044Z,1012.15
2019-02-27T09:37:39.947Z,1012.17
2019-02-27T09:38:39.937Z,1012.12
2019-02-27T09:39:39.931Z,1012.11
2019-02-27T09:40:40.061Z,1012.03
2019-02-27T09:41:39.908Z,1012.02
2019-02-27T09:42:39.913Z,1012.00
2019-02-27T09:43:39.898Z,1011.99
2019-02-27T09:44:39.884Z,1011.96
2019-02-27T09:45:39.889Z,1011.95
2019-02-27T09:46:39.870Z,1011.97
2019-02-27T09:47:39.861Z,1011.95
2019-02-27T09:48:39.863Z,1011.92
2019-02-27T09:49:40.627Z,1011.96
2019-02-27T09:50:39.836Z,1011.95
2019-02-27T09:51:39.826Z,1011.90
2019-02-27T09:52:39.816Z,1011.94
2019-02-27T09:53:39.819Z,1011.89
2019-02-27T09:54:39.798Z,1011.89
2019-02-27T09:55:39.799Z,1011.87
2019-02-27T09:56:39.786Z,1011.87
2019-02-27T09:57:39.774Z,1011.87
2019-02-27T09:58:45.082Z,1011.83
2019-02-27T09:59:40.062Z,1011.82
2019-02-27T10:00:39.770Z,1011.85
2019-02-27T10:01:39.748Z,1011.79
2019-02-27T10:02:39.992Z,1011.77
2019-02-27T10:03:39.724Z,1011.81
2019-02-27T10:04:39.721Z,1011.82
2019-02-27T10:05:40.860Z,1011.79
2019-02-27T10:06:40.450Z,1011.75
2019-02-27T10:07:39.700Z,1011.77
2019-02-27T10:08:39.684Z,1011.77
2019-02-27T10:09:40.417Z,1011.79
2019-02-27T10:10:39.696Z,1011.76
2019-02-27T10:11:39.666Z,1011.72
2019-02-27T10:12:39.656Z,1011.67
2019-02-27T10:13:39.683Z,1011.68
2019-02-27T10:14:39.722Z,1011.69
2019-02-27T10:15:39.643Z,1011.68
2019-02-27T10:16:39.622Z,1011.66
2019-02-27T10:17:41.027Z,1011.62
2019-02-27T10:18:39.694Z,1011.68
2019-02-27T10:19:40.146Z,1011.61
2019-02-27T10:20:39.591Z,1011.60
2019-02-27T10:21:41.270Z,1011.52
2019-02-27T10:22:39.584Z,1011.54
2019-02-27T10:23:39.581Z,1011.56
2019-02-27T10:24:39.580Z,1011.52
2019-02-27T10:25:43.198Z,1011.50
2019-02-27T10:26:39.559Z,1011.55
2019-02-27T10:27:39.538Z,1011.50
2019-02-27T10:28:39.851Z,1011.44
2019-02-27T10:29:39.564Z,1011.44
2019-02-27T10:30:39.849Z,1011.42
2019-02-27T10:31:39.562Z,1011.46
2019-02-27T10:32:39.506Z,1011.41
2019-02-27T10:33:39.668Z,1011.41
2019-02-27T10:34:39.503Z,1011.39
2019-02-27T10:35:39.491Z,1011.39
2019-02-27T10:36:39.476Z,1011.41
2019-02-27T10:37:39.544Z,1011.40
2019-02-27T10:38:40.374Z,1011.35
2019-02-27T10:39:39.470Z,1011.35
2019-02-27T10:40:39.466Z,1011.38
2019-02-27T10:41:39.455Z,1011.33
2019-02-27T10:42:39.443Z,1011.28
2019-02-27T10:43:39.429Z,1011.29
2019-02-27T10:44:39.435Z,1011.27
2019-02-27T10:45:39.547Z,1011.28
2019-02-27T10:46:39.407Z,1011.25
2019-02-27T10:47:39.909Z,1011.26
2019-02-27T10:48:40.114Z,1011.25
2019-02-27T10:49:39.399Z,1011.21
2019-02-27T10:50:39.378Z,1011.18
2019-02-27T10:51:41.556Z,1011.15
2019-02-27T10:52:39.364Z,1011.17
2019-02-27T10:53:39.363Z,1011.12
2019-02-27T10:54:39.912Z,1011.08
2019-02-27T10:55:39.344Z,1011.04
2019-02-27T10:56:39.341Z,1011.05
2019-02-27T10:57:39.393Z,1011.01
2019-02-27T10:58:39.421Z,1011.03
2019-02-27T10:59:39.317Z,1010.98
2019-02-27T11:00:39.325Z,1010.95
2019-02-27T11:01:39.307Z,1010.92
2019-02-27T11:02:39.332Z,1010.86
2019-02-27T11:03:39.303Z,1010.86
2019-02-27T11:04:39.634Z,1010.84
2019-02-27T11:05:39.279Z,1010.77
2019-02-27T11:06:39.322Z,1010.77
2019-02-27T11:07:39.270Z,1010.73
2019-02-27T11:08:39.299Z,1010.74
2019-02-27T11:09:41.215Z,1010.71
2019-02-27T11:10:39.256Z,1010.67
2019-02-27T11:11:39.417Z,1010.61
2019-02-27T11:12:39.241Z,1010.59
2019-02-27T11:13:39.230Z,1010.59
2019-02-27T11:14:39.224Z,1010.57
2019-02-27T11:15:41.430Z,1010.56
2019-02-27T11:16:39.213Z,1010.57
2019-02-27T11:17:39.206Z,1010.56
2019-02-27T11:18:39.200Z,1010.52
2019-02-27T11:19:39.239Z,1010.53
2019-02-27T11:20:39.296Z,1010.55
2019-02-27T11:21:39.412Z,1010.51
2019-02-27T11:22:40.217Z,1010.50
2019-02-27T11:23:41.150Z,1010.46
2019-02-27T11:24:39.162Z,1010.47
2019-02-27T11:25:39.255Z,1010.43
2019-02-27T11:26:39.156Z,1010.42
2019-02-27T11:27:39.726Z,1010.40
2019-02-27T11:28:39.283Z,1010.43
2019-02-27T11:29:40.250Z,1010.38
2019-02-27T11:30:39.132Z,1010.38
2019-02-27T11:31:39.291Z,1010.39
2019-02-27T11:32:39.126Z,1010.35
2019-02-27T11:33:39.117Z,1010.35
2019-02-27T11:34:39.125Z,1010.36
2019-02-27T11:35:39.104Z,1010.33
2019-02-27T11:36:39.657Z,1010.34
2019-02-27T11:37:39.115Z,1010.33
2019-02-27T11:38:39.093Z,1010.35
2019-02-27T11:39:39.077Z,1010.32
2019-02-27T11:40:41.805Z,1010.31
2019-02-27T11:41:39.069Z,1010.30
2019-02-27T11:42:39.063Z,1010.26
2019-02-27T11:43:40.808Z,1010.29
2019-02-27T11:44:39.124Z,1010.26
2019-02-27T11:45:39.046Z,1010.27
2019-02-27T11:46:39.050Z,1010.20
2019-02-27T11:47:39.041Z,1010.20
2019-02-27T11:48:39.030Z,1010.19
2019-02-27T11:49:39.368Z,1010.17
2019-02-27T11:50:39.019Z,1010.13
2019-02-27T11:51:39.032Z,1010.10
2019-02-27T11:52:46.239Z,1010.11
2019-02-27T11:53:39.017Z,1010.11
2019-02-27T11:54:42.892Z,1010.09
2019-02-27T11:55:38.999Z,1010.07
2019-02-27T11:56:38.988Z,1010.07
2019-02-27T11:57:38.988Z,1010.07
2019-02-27T11:58:39.159Z,1010.07
2019-02-27T11:59:38.976Z,1010.07
2019-02-27T12:00:38.968Z,1010.06
2019-02-27T12:01:39.000Z,1010.04
2019-02-27T12:02:38.965Z,1010.05
2019-02-27T12:03:38.961Z,1010.02
2019-02-27T12:04:39.177Z,1010.01
2019-02-27T12:05:38.946Z,1010.00